Time;durP1;ratioP1;P1;durP2;ratioP2;P2;SDS_P1;SDS_P2;PMS_P1;PMS_P2;Temp;Humidity;BMP_temperature;BMP_pressure;BME280_temperature;BME280_humidity;BME280_pressure;Samples;Min_cycle;Max_cycle;Signal;HPM_P1;HPM_P2
2023/11/11 00:02:22;;;;;;;0.47;0.47;;;;;;;7.30;100.00;100020.38;10370346;28;20095;-72
2023/11/11 00:07:24;;;;;;;0.50;0.50;;;;;;;7.31;100.00;100022.03;10370794;28;20038;-72
2023/11/11 00:12:24;;;;;;;0.77;0.77;;;;;;;7.30;100.00;100023.06;10369728;28;20402;-72
2023/11/11 00:17:25;;;;;;;0.60;0.60;;;;;;;7.23;100.00;100029.22;10368584;28;20041;-73
2023/11/11 00:22:25;;;;;;;0.40;0.40;;;;;;;7.15;100.00;100032.09;10369838;28;20129;-72
2023/11/11 00:27:27;;;;;;;0.40;0.40;;;;;;;7.11;100.00;100033.50;10368594;28;20362;-72
2023/11/11 00:32:27;;;;;;;1.40;1.40;;;;;;;7.15;100.00;100032.09;10370391;28;20109;-72
2023/11/11 00:37:28;;;;;;;0.50;0.50;;;;;;;7.17;100.00;100030.00;10375943;28;20127;-72
2023/11/11 00:42:28;;;;;;;0.63;0.63;;;;;;;7.10;100.00;100042.59;10376627;28;20057;-72
2023/11/11 00:47:29;;;;;;;0.50;0.50;;;;;;;7.15;100.00;100060.88;10376660;28;20080;-72
2023/11/11 00:52:29;;;;;;;0.50;0.50;;;;;;;7.19;100.00;100068.34;10376342;28;20065;-72
2023/11/11 00:57:30;;;;;;;0.57;0.57;;;;;;;7.25;100.00;100064.06;10376692;28;20145;-72
2023/11/11 01:02:30;;;;;;;0.43;0.43;;;;;;;7.25;100.00;100057.84;10377306;28;20038;-71
2023/11/11 01:07:31;;;;;;;0.40;0.40;;;;;;;7.16;100.00;100052.59;10375497;28;20117;-71
2023/11/11 01:12:31;;;;;;;0.40;0.40;;;;;;;6.96;100.00;100048.94;10376374;28;20034;-71
2023/11/11 01:17:32;;;;;;;0.40;0.40;;;;;;;6.93;100.00;100052.84;10374725;28;20461;-73
2023/11/11 01:22:33;;;;;;;0.50;0.50;;;;;;;7.05;100.00;100071.13;10375706;28;20103;-72
2023/11/11 01:27:35;;;;;;;0.60;0.60;;;;;;;7.16;100.00;100057.97;10375017;28;20139;-71
2023/11/11 01:32:36;;;;;;;0.40;0.40;;;;;;;7.18;100.00;100060.50;10374748;28;20053;-71
2023/11/11 01:37:36;;;;;;;1.42;1.42;;;;;;;7.15;100.00;100063.56;10374033;28;20049;-71
2023/11/11 01:42:37;;;;;;;0.40;0.40;;;;;;;7.26;100.00;100072.97;10374463;28;20060;-71
2023/11/11 01:47:38;;;;;;;0.40;0.40;;;;;;;7.17;100.00;100072.28;10372461;28;20042;-72
2023/11/11 01:52:38;;;;;;;4.40;4.00;;;;;;;7.17;100.00;100061.50;10374261;28;20444;-72
2023/11/11 01:57:39;;;;;;;0.40;0.40;;;;;;;7.18;100.00;100079.34;10373590;28;20133;-72
2023/11/11 02:02:40;;;;;;;0.60;0.60;;;;;;;7.04;100.00;100091.84;10357068;28;20339;-71
2023/11/11 02:07:41;;;;;;;0.65;0.65;;;;;;;6.77;100.00;100095.34;10356076;28;20034;-71
2023/11/11 02:12:42;;;;;;;1.77;1.77;;;;;;;6.85;100.00;100108.66;10372965;28;20106;-71
2023/11/11 02:17:43;;;;;;;0.50;0.50;;;;;;;6.87;100.00;100102.06;10372339;28;20034;-71
2023/11/11 02:22:44;;;;;;;0.50;0.50;;;;;;;6.95;100.00;100112.66;10388466;28;20104;-72
2023/11/11 02:27:46;;;;;;;0.50;0.50;;;;;;;7.07;100.00;100102.22;10373054;28;20103;-71
2023/11/11 02:32:48;;;;;;;1.65;1.65;;;;;;;7.20;100.00;100104.19;10373333;28;20036;-71
2023/11/11 02:37:49;;;;;;;0.60;0.60;;;;;;;7.21;100.00;100103.16;10373001;28;20493;-71
2023/11/11 02:42:49;;;;;;;0.35;0.35;;;;;;;7.12;100.00;100110.56;10371400;28;20041;-71
2023/11/11 02:47:50;;;;;;;0.50;0.50;;;;;;;7.11;100.00;100106.19;10374852;28;20111;-71
2023/11/11 02:52:50;;;;;;;0.40;0.40;;;;;;;7.25;100.00;100126.00;10374154;28;20130;-71
2023/11/11 02:57:52;;;;;;;0.65;0.65;;;;;;;7.32;100.00;100132.25;10371720;28;20386;-72
2023/11/11 03:02:52;;;;;;;0.50;0.50;;;;;;;7.32;100.00;100128.72;10371123;28;20037;-72
2023/11/11 03:07:52;;;;;;;0.47;0.47;;;;;;;7.28;100.00;100124.78;10369552;28;20033;-72
2023/11/11 03:12:53;;;;;;;0.50;0.50;;;;;;;7.20;100.00;100123.03;10370645;28;20048;-72
2023/11/11 03:17:56;;;;;;;1.13;1.13;;;;;;;7.20;100.00;100128.44;10372585;28;20128;-72
2023/11/11 03:22:56;;;;;;;0.45;0.45;;;;;;;7.18;100.00;100136.72;10371279;28;20034;-72
2023/11/11 03:27:57;;;;;;;0.73;0.73;;;;;;;6.95;100.00;100128.81;10370831;28;20041;-70
2023/11/11 03:32:57;;;;;;;0.50;0.50;;;;;;;6.87;100.00;100149.66;10371125;28;20473;-70
2023/11/11 03:37:57;;;;;;;0.57;0.57;;;;;;;6.85;100.00;100151.72;10368460;28;20046;-70
2023/11/11 03:42:58;;;;;;;0.60;0.60;;;;;;;6.89;100.00;100152.97;10370539;28;20458;-70
2023/11/11 03:47:58;;;;;;;0.57;0.57;;;;;;;6.95;100.00;100165.66;10371054;28;20034;-71
2023/11/11 03:52:58;;;;;;;0.57;0.57;;;;;;;6.80;100.00;100167.59;10370023;28;20196;-71
2023/11/11 03:57:59;;;;;;;0.50;0.50;;;;;;;6.70;100.00;100166.06;10370514;28;20101;-72
2023/11/11 04:03:00;;;;;;;0.50;0.50;;;;;;;6.64;100.00;100180.28;10369520;28;20034;-71
2023/11/11 04:08:00;;;;;;;0.50;0.50;;;;;;;6.53;100.00;100186.13;10369186;28;20061;-71
2023/11/11 04:13:01;;;;;;;0.90;0.90;;;;;;;6.54;100.00;100190.50;10377740;28;20070;-70
2023/11/11 04:18:01;;;;;;;0.60;0.60;;;;;;;6.50;100.00;100192.72;10377586;28;20552;-70
2023/11/11 04:23:01;;;;;;;0.70;0.70;;;;;;;6.47;100.00;100203.00;10377478;28;20038;-70
2023/11/11 04:28:02;;;;;;;0.60;0.60;;;;;;;6.42;100.00;100200.06;10377502;28;20062;-70
2023/11/11 04:33:02;;;;;;;0.60;0.60;;;;;;;6.37;100.00;100208.69;10375524;28;20510;-71
2023/11/11 04:38:07;;;;;;;1.35;1.27;;;;;;;6.40;100.00;100216.38;10377457;28;20496;-70
2023/11/11 04:43:08;;;;;;;0.50;0.50;;;;;;;6.53;100.00;100215.72;10375846;28;20160;-69
2023/11/11 04:48:09;;;;;;;0.50;0.50;;;;;;;6.56;100.00;100207.28;10378368;28;20037;-71
2023/11/11 04:53:10;;;;;;;0.75;0.75;;;;;;;6.63;100.00;100210.88;10359076;28;20108;-70
2023/11/11 04:58:11;;;;;;;0.75;0.75;;;;;;;6.63;100.00;100212.72;10377107;28;20093;-70
2023/11/11 05:03:12;;;;;;;0.50;0.50;;;;;;;6.71;100.00;100218.00;10376809;28;20445;-70
2023/11/11 05:08:12;;;;;;;0.47;0.47;;;;;;;6.78;100.00;100212.69;10375935;28;20038;-72
2023/11/11 05:13:14;;;;;;;0.70;0.70;;;;;;;6.83;100.00;100226.41;10376553;28;20133;-70
2023/11/11 05:18:15;;;;;;;0.73;0.73;;;;;;;6.88;100.00;100214.06;10375264;28;20453;-70
2023/11/11 05:23:15;;;;;;;0.60;0.60;;;;;;;6.98;100.00;100222.66;10374016;28;20041;-70
2023/11/11 05:28:15;;;;;;;0.60;0.60;;;;;;;7.06;100.00;100232.47;10376244;28;20357;-70
2023/11/11 05:33:16;;;;;;;0.60;0.60;;;;;;;7.16;100.00;100240.25;10374863;28;20034;-70
2023/11/11 05:38:16;;;;;;;3.08;2.88;;;;;;;7.17;100.00;100231.97;10374093;28;20172;-70
2023/11/11 05:43:17;;;;;;;0.40;0.40;;;;;;;7.31;100.00;100251.78;10373129;28;20033;-70
2023/11/11 05:48:18;;;;;;;0.50;0.50;;;;;;;7.35;100.00;100249.53;10374226;28;20049;-70
2023/11/11 05:53:19;;;;;;;0.60;0.60;;;;;;;7.39;100.00;100254.34;10374608;28;20057;-70
2023/11/11 05:58:20;;;;;;;0.40;0.40;;;;;;;7.33;100.00;100252.41;10374996;28;20100;-70
2023/11/11 06:03:20;;;;;;;1.10;1.10;;;;;;;7.31;100.00;100256.34;10371985;28;20120;-70
2023/11/11 06:08:21;;;;;;;0.57;0.57;;;;;;;7.27;100.00;100272.03;10373584;28;20041;-69
2023/11/11 06:13:21;;;;;;;0.50;0.50;;;;;;;7.22;100.00;100271.78;10372917;28;20030;-70
2023/11/11 06:18:21;;;;;;;0.70;0.70;;;;;;;7.12;100.00;100273.97;10372173;28;20038;-70
2023/11/11 06:23:22;;;;;;;1.30;1.20;;;;;;;6.98;100.00;100263.03;10373385;28;20038;-71
2023/11/11 06:28:22;;;;;;;0.50;0.50;;;;;;;6.94;100.00;100282.44;10372603;28;20480;-70
2023/11/11 06:33:24;;;;;;;0.80;0.80;;;;;;;6.82;100.00;100282.09;10372673;28;20345;-70
2023/11/11 06:38:24;;;;;;;0.65;0.65;;;;;;;6.75;100.00;100289.25;10371528;28;20034;-71
2023/11/11 06:43:24;;;;;;;0.50;0.50;;;;;;;6.69;100.00;100280.06;10370724;28;20048;-70
2023/11/11 06:48:26;;;;;;;0.60;0.60;;;;;;;6.68;100.00;100293.72;10371765;28;20053;-70
2023/11/11 06:53:26;;;;;;;0.60;0.60;;;;;;;6.63;100.00;100299.66;10370016;28;20469;-70
2023/11/11 06:58:27;;;;;;;0.50;0.50;;;;;;;6.57;100.00;100305.78;10372011;28;20037;-69
2023/11/11 07:03:28;;;;;;;5.10;2.75;;;;;;;6.46;100.00;100296.31;10371112;28;20045;-69
2023/11/11 07:08:30;;;;;;;13.35;4.28;;;;;;;6.44;100.00;100316.34;10370811;28;20428;-70
2023/11/11 07:13:30;;;;;;;11.20;2.88;;;;;;;6.42;100.00;100313.84;10369534;28;20384;-70
2023/11/11 07:18:30;;;;;;;3.45;3.05;;;;;;;6.44;100.00;100322.56;10370395;28;20045;-70
2023/11/11 07:23:31;;;;;;;10.27;3.92;;;;;;;6.43;100.00;100330.81;10369979;28;20045;-69
2023/11/11 07:28:31;;;;;;;3.95;3.55;;;;;;;6.50;100.00;100337.97;10371236;28;20488;-69
2023/11/11 07:33:33;;;;;;;4.65;2.45;;;;;;;6.51;100.00;100352.28;10370183;28;20478;-69
2023/11/11 07:38:34;;;;;;;3.75;2.20;;;;;;;6.63;100.00;100361.53;10370425;28;20042;-69
2023/11/11 07:43:38;;;;;;;14.88;3.50;;;;;;;6.97;100.00;100366.34;10370182;28;20448;-69
2023/11/11 07:48:41;;;;;;;10.57;3.42;;;;;;;7.45;100.00;100363.19;10369586;28;20093;-69
2023/11/11 07:53:41;;;;;;;5.18;3.58;;;;;;;8.58;100.00;100356.97;10370360;28;20053;-70
2023/11/11 07:58:41;;;;;;;12.98;3.22;;;;;;;8.90;100.00;100364.59;10370566;28;20042;-70
2023/11/11 08:03:43;;;;;;;16.55;4.45;;;;;;;9.57;100.00;100369.25;10370106;28;20549;-72
2023/11/11 08:08:44;;;;;;;9.38;3.28;;;;;;;9.65;100.00;100368.25;10371526;28;20044;-71
2023/11/11 08:13:45;;;;;;;8.73;2.05;;;;;;;9.99;100.00;100369.97;10369299;28;20038;-71
2023/11/11 08:18:45;;;;;;;2.92;2.45;;;;;;;9.64;100.00;100372.00;10368182;28;20050;-71
2023/11/11 08:23:46;;;;;;;12.82;2.10;;;;;;;11.01;100.00;100382.19;10369531;28;20025;-71
2023/11/11 08:28:46;;;;;;;3.45;1.33;;;;;;;12.06;100.00;100387.28;10368400;28;20486;-71
2023/11/11 08:33:47;;;;;;;2.40;1.65;;;;;;;11.79;100.00;100390.16;10371971;28;20034;-71
2023/11/11 08:38:47;;;;;;;4.70;2.22;;;;;;;11.29;100.00;100389.16;10371813;28;20040;-72
2023/11/11 08:43:47;;;;;;;2.88;1.95;;;;;;;10.85;100.00;100391.59;10369236;28;20026;-71
2023/11/11 08:48:48;;;;;;;27.02;2.88;;;;;;;10.93;100.00;100391.34;10369107;28;20038;-71
2023/11/11 08:53:48;;;;;;;1.85;1.55;;;;;;;12.00;100.00;100393.63;10369114;28;20057;-71
2023/11/11 08:58:49;;;;;;;7.25;1.65;;;;;;;12.72;100.00;100388.63;10374926;28;20113;-71
2023/11/11 09:03:49;;;;;;;3.05;1.85;;;;;;;11.93;100.00;100390.09;10374075;28;20160;-70
2023/11/11 09:08:50;;;;;;;1.73;1.63;;;;;;;11.17;100.00;100408.81;10375474;28;20044;-70
2023/11/11 09:13:52;;;;;;;3.42;2.40;;;;;;;10.59;100.00;100400.59;10375101;28;20034;-70
2023/11/11 09:18:52;;;;;;;2.40;1.30;;;;;;;10.16;100.00;100397.44;10373624;28;20476;-70
2023/11/11 09:23:53;;;;;;;7.32;1.92;;;;;;;9.85;100.00;100401.53;10374250;28;20042;-69
2023/11/11 09:28:53;;;;;;;4.22;1.58;;;;;;;9.84;100.00;100408.00;10375344;28;20037;-70
2023/11/11 09:34:00;;;;;;;2.95;1.95;;;;;;;9.85;100.00;100412.38;10356063;28;20041;-70
2023/11/11 09:39:04;;;;;;;2.42;1.50;;;;;;;10.31;100.00;100411.63;10374789;28;20030;-70
2023/11/11 09:44:05;;;;;;;4.68;1.42;;;;;;;11.43;100.00;100422.47;10375944;28;20120;-70
2023/11/11 09:49:05;;;;;;;6.18;1.77;;;;;;;12.67;100.00;100427.34;10374019;28;20030;-69
2023/11/11 09:54:06;;;;;;;1.30;1.30;;;;;;;13.72;100.00;100412.78;10373748;28;20049;-70
2023/11/11 09:59:06;;;;;;;1.50;1.50;;;;;;;14.08;100.00;100420.03;10373752;28;20117;-69
2023/11/11 10:04:07;;;;;;;2.50;1.92;;;;;;;13.98;100.00;100418.94;10356127;28;20080;-70
2023/11/11 10:09:12;;;;;;;2.55;2.35;;;;;;;14.78;100.00;100418.50;10371458;28;20120;-69
2023/11/11 10:14:15;;;;;;;2.17;1.35;;;;;;;13.63;100.00;100425.06;10371607;28;20052;-69
2023/11/11 10:19:16;;;;;;;3.53;2.42;;;;;;;11.90;100.00;100437.50;10372192;28;20120;-69
2023/11/11 10:24:16;;;;;;;2.67;1.88;;;;;;;10.76;100.00;100449.72;10355572;28;20120;-68
2023/11/11 10:29:17;;;;;;;2.83;1.63;;;;;;;10.24;100.00;100459.47;10371523;28;20030;-69
2023/11/11 10:34:17;;;;;;;2.95;2.15;;;;;;;9.67;100.00;100466.19;10371066;28;20117;-71
2023/11/11 10:39:18;;;;;;;2.58;1.67;;;;;;;9.39;100.00;100480.63;10371592;28;20034;-70
2023/11/11 10:44:19;;;;;;;2.67;1.95;;;;;;;9.55;100.00;100472.19;10355906;28;20033;-69
2023/11/11 10:49:20;;;;;;;3.70;2.00;;;;;;;9.92;100.00;100478.16;10373119;28;20056;-69
2023/11/11 10:54:21;;;;;;;1.30;1.23;;;;;;;10.19;100.00;100475.50;10370658;28;20497;-70
2023/11/11 10:59:22;;;;;;;1.30;1.20;;;;;;;10.78;100.00;100473.88;10371832;28;20038;-69
2023/11/11 11:04:26;;;;;;;7.05;1.92;;;;;;;12.29;100.00;100471.69;10372347;28;20044;-69
2023/11/11 11:10:03;;;;;;;5.15;2.60;;;;;;;12.79;100.00;100476.31;10371391;28;20091;-69
2023/11/11 11:15:06;;;;;;;1.98;1.88;;;;;;;12.86;100.00;100463.53;10369357;28;20050;-69
2023/11/11 11:20:14;;;;;;;3.42;1.35;;;;;;;12.99;100.00;100476.97;10368402;28;20052;-70
2023/11/11 11:25:30;;;;;;;2.55;1.67;;;;;;;12.07;100.00;100465.78;10371492;28;20172;-69
2023/11/11 11:30:30;;;;;;;1.57;1.47;;;;;;;11.51;100.00;100462.88;10370783;28;20050;-69
2023/11/11 11:35:33;;;;;;;8.25;2.08;;;;;;;11.16;100.00;100465.91;10353385;28;20422;-69
2023/11/11 11:40:34;;;;;;;2.03;1.92;;;;;;;11.85;100.00;100465.28;10369589;28;20033;-69
2023/11/11 11:45:35;;;;;;;2.00;1.75;;;;;;;12.83;100.00;100458.53;10370594;28;20120;-69
2023/11/11 11:50:36;;;;;;;5.18;1.50;;;;;;;13.16;100.00;100473.69;10370816;28;20592;-69
2023/11/11 11:55:38;;;;;;;2.25;2.15;;;;;;;13.20;100.00;100472.16;10352648;28;20113;-69
2023/11/11 12:00:38;;;;;;;4.05;2.03;;;;;;;12.47;100.00;100472.81;10370557;28;20038;-69
2023/11/11 12:05:39;;;;;;;3.08;2.70;;;;;;;12.20;100.00;100483.88;10370291;28;20477;-70
2023/11/11 12:10:51;;;;;;;5.68;2.33;;;;;;;12.00;100.00;100477.75;10370463;28;20061;-69
2023/11/11 12:15:52;;;;;;;2.47;2.05;;;;;;;12.27;100.00;100483.81;10368671;28;20390;-69
2023/11/11 12:20:52;;;;;;;4.93;1.77;;;;;;;12.62;100.00;100480.66;10369989;28;20054;-70
2023/11/11 12:25:53;;;;;;;2.15;1.95;;;;;;;12.29;100.00;100485.28;10369960;28;20112;-69
2023/11/11 12:31:03;;;;;;;2.38;1.10;;;;;;;12.04;100.00;100484.38;10372054;28;20436;-69
2023/11/11 12:36:04;;;;;;;5.32;1.98;;;;;;;11.99;100.00;100487.72;10377102;28;20390;-70
2023/11/11 12:41:09;;;;;;;2.05;1.90;;;;;;;11.80;100.00;100492.19;10375094;28;20029;-68
2023/11/11 12:46:16;;;;;;;10.98;2.47;;;;;;;11.52;100.00;100489.81;10393905;28;20034;-69
2023/11/11 12:51:29;;;;;;;6.55;2.88;;;;;;;11.31;100.00;100499.03;10360557;28;20114;-68
2023/11/11 12:56:32;;;;;;;5.70;1.67;;;;;;;11.32;100.00;100502.56;10377767;28;20050;-69
2023/11/11 13:01:33;;;;;;;3.03;2.22;;;;;;;11.64;100.00;100487.25;10374397;28;20436;-69
2023/11/11 13:06:34;;;;;;;6.28;2.60;;;;;;;11.44;100.00;100498.16;10377595;28;20119;-70
2023/11/11 13:11:35;;;;;;;4.05;1.92;;;;;;;11.57;100.00;100505.44;10376081;28;20033;-70
2023/11/11 13:16:36;;;;;;;4.20;1.25;;;;;;;11.50;100.00;100515.47;10358286;28;20422;-70
2023/11/11 13:21:38;;;;;;;10.77;1.65;;;;;;;11.66;100.00;100520.41;10375261;28;20087;-69
2023/11/11 13:26:39;;;;;;;4.28;1.45;;;;;;;11.51;100.00;100517.13;10375059;28;20026;-69
2023/11/11 13:31:40;;;;;;;2.63;1.75;;;;;;;11.38;100.00;100507.97;10374994;28;20045;-70
2023/11/11 13:36:43;;;;;;;7.22;1.85;;;;;;;11.18;100.00;100504.50;10374966;28;20093;-70
2023/11/11 13:41:44;;;;;;;2.95;1.73;;;;;;;10.98;100.00;100511.81;10372658;28;20056;-69
2023/11/11 13:46:44;;;;;;;4.57;1.73;;;;;;;10.71;100.00;100515.34;10373746;28;20311;-71
2023/11/11 13:51:45;;;;;;;2.05;1.63;;;;;;;10.48;100.00;100520.34;10374028;28;20124;-70
2023/11/11 13:56:45;;;;;;;1.85;1.52;;;;;;;10.27;100.00;100524.03;10375191;28;20488;-69
2023/11/11 14:01:46;;;;;;;3.90;1.23;;;;;;;10.19;100.00;100529.63;10373688;28;20477;-69
2023/11/11 14:06:46;;;;;;;3.30;1.08;;;;;;;10.20;100.00;100526.69;10374731;28;20049;-70
2023/11/11 14:11:47;;;;;;;1.80;1.70;;;;;;;10.04;100.00;100527.06;10374517;28;20354;-69
2023/11/11 14:16:47;;;;;;;4.53;1.33;;;;;;;9.96;100.00;100535.38;10375639;28;20045;-68
2023/11/11 14:21:48;;;;;;;3.78;1.77;;;;;;;9.97;100.00;100542.44;10375454;28;20042;-69
2023/11/11 14:26:49;;;;;;;2.65;1.83;;;;;;;10.09;100.00;100546.22;10373172;28;20045;-69
2023/11/11 14:31:49;;;;;;;1.52;1.38;;;;;;;10.33;100.00;100544.03;10374803;28;20037;-69
2023/11/11 14:36:50;;;;;;;2.55;1.98;;;;;;;10.52;100.00;100545.94;10372903;28;20042;-70
2023/11/11 14:41:52;;;;;;;1.52;1.38;;;;;;;10.74;100.00;100562.00;10373690;28;20468;-70
2023/11/11 14:46:54;;;;;;;4.68;1.17;;;;;;;10.62;100.00;100562.63;10372179;28;20465;-70
2023/11/11 14:51:55;;;;;;;1.17;1.17;;;;;;;10.40;100.00;100569.25;10370781;28;20041;-71
2023/11/11 14:56:56;;;;;;;2.00;1.83;;;;;;;9.99;100.00;100576.38;10371624;28;20038;-70
2023/11/11 15:01:57;;;;;;;1.38;1.15;;;;;;;9.82;100.00;100577.72;10370739;28;20091;-70
2023/11/11 15:06:57;;;;;;;2.45;1.25;;;;;;;9.70;100.00;100572.06;10387247;28;20378;-70
2023/11/11 15:11:57;;;;;;;1.40;1.40;;;;;;;9.60;100.00;100578.84;10371993;28;20082;-70
2023/11/11 15:17:00;;;;;;;5.32;2.08;;;;;;;9.48;100.00;100576.72;10371513;28;20037;-70
2023/11/11 15:22:00;;;;;;;1.55;1.45;;;;;;;9.43;100.00;100579.19;10370746;28;20026;-70
2023/11/11 15:27:00;;;;;;;5.85;2.88;;;;;;;9.37;100.00;100569.16;10371223;28;20496;-70
2023/11/11 15:32:08;;;;;;;1.42;1.38;;;;;;;9.26;100.00;100577.81;10371273;28;20138;-71
2023/11/11 15:37:11;;;;;;;6.70;2.47;;;;;;;9.03;100.00;100594.25;10370245;28;20034;-73
2023/11/11 15:42:11;;;;;;;2.05;1.80;;;;;;;8.93;100.00;100588.34;10369605;28;20493;-70
2023/11/11 15:47:12;;;;;;;2.50;1.48;;;;;;;9.07;100.00;100588.28;10370321;28;20114;-69
2023/11/11 15:52:12;;;;;;;3.42;2.22;;;;;;;9.06;100.00;100583.06;10370818;28;20077;-70
2023/11/11 15:57:13;;;;;;;6.90;2.50;;;;;;;9.05;100.00;100586.78;10368500;28;20117;-70
2023/11/11 16:02:13;;;;;;;2.28;2.08;;;;;;;9.08;100.00;100591.81;10370366;28;20034;-69
2023/11/11 16:07:14;;;;;;;2.05;1.90;;;;;;;9.04;100.00;100596.75;10374763;28;20033;-69
2023/11/11 16:12:14;;;;;;;6.15;3.05;;;;;;;8.91;100.00;100601.22;10377659;28;20038;-70
2023/11/11 16:17:15;;;;;;;2.58;2.25;;;;;;;8.64;100.00;100597.41;10377321;28;20481;-70
2023/11/11 16:22:15;;;;;;;6.35;3.20;;;;;;;8.37;100.00;100606.03;10378049;28;20041;-69
2023/11/11 16:27:15;;;;;;;6.72;2.13;;;;;;;8.18;100.00;100601.25;10377233;28;20105;-70
2023/11/11 16:32:17;;;;;;;3.00;2.70;;;;;;;8.21;100.00;100610.84;10377158;28;20159;-70
2023/11/11 16:37:17;;;;;;;5.78;4.00;;;;;;;8.50;100.00;100605.38;10378033;28;20038;-70
2023/11/11 16:42:18;;;;;;;7.57;3.72;;;;;;;8.76;100.00;100621.00;10377076;28;20517;-70
2023/11/11 16:47:19;;;;;;;8.13;2.85;;;;;;;8.92;100.00;100625.31;10377430;28;20453;-70
2023/11/11 16:52:19;;;;;;;1.73;1.63;;;;;;;9.05;100.00;100613.81;10373732;28;20120;-70
2023/11/11 16:57:20;;;;;;;2.95;1.95;;;;;;;9.14;100.00;100611.81;10376360;28;20033;-69
2023/11/11 17:02:20;;;;;;;2.05;1.95;;;;;;;9.19;100.00;100612.03;10375529;28;20143;-70
2023/11/11 17:07:21;;;;;;;2.78;1.67;;;;;;;9.15;100.00;100614.28;10376573;28;20048;-71
2023/11/11 17:12:23;;;;;;;4.07;2.70;;;;;;;9.20;100.00;100611.84;10375729;28;20026;-70
2023/11/11 17:17:24;;;;;;;3.53;2.78;;;;;;;9.20;100.00;100611.03;10375189;28;20105;-70
2023/11/11 17:22:24;;;;;;;5.05;2.38;;;;;;;9.12;100.00;100613.84;10375023;28;20053;-70
2023/11/11 17:27:25;;;;;;;7.07;2.80;;;;;;;9.13;100.00;100610.16;10375158;28;20450;-70
2023/11/11 17:32:26;;;;;;;6.80;2.33;;;;;;;8.96;100.00;100605.00;10374083;28;20121;-70
2023/11/11 17:37:27;;;;;;;3.20;2.50;;;;;;;8.79;100.00;100615.22;10374881;28;20053;-71
2023/11/11 17:42:28;;;;;;;3.58;1.92;;;;;;;8.67;100.00;100613.22;10375287;28;20045;-71
2023/11/11 17:47:28;;;;;;;6.57;2.25;;;;;;;8.80;100.00;100610.66;10389697;28;20433;-70
2023/11/11 17:52:29;;;;;;;5.20;2.47;;;;;;;8.95;100.00;100613.31;10372904;28;20054;-70
2023/11/11 17:57:29;;;;;;;3.40;2.97;;;;;;;8.91;100.00;100620.13;10373882;28;20038;-69
2023/11/11 18:02:30;;;;;;;7.20;4.70;;;;;;;8.88;100.00;100624.03;10373131;28;20044;-70
2023/11/11 18:07:31;;;;;;;6.63;4.25;;;;;;;8.93;100.00;100615.34;10373976;28;20377;-70
2023/11/11 18:12:31;;;;;;;5.32;2.65;;;;;;;8.90;100.00;100621.97;10374078;28;20030;-70
2023/11/11 18:17:32;;;;;;;3.20;2.63;;;;;;;8.89;100.00;100624.88;10373976;28;20037;-69
2023/11/11 18:22:33;;;;;;;3.15;2.25;;;;;;;8.81;100.00;100610.47;10372569;28;20026;-70
2023/11/11 18:27:33;;;;;;;4.45;2.88;;;;;;;8.65;100.00;100608.03;10372757;28;20038;-70
2023/11/11 18:32:34;;;;;;;7.35;3.28;;;;;;;8.60;100.00;100610.47;10371852;28;20441;-70
2023/11/11 18:37:35;;;;;;;1.70;1.60;;;;;;;8.65;100.00;100607.19;10372928;28;20049;-69
2023/11/11 18:42:36;;;;;;;3.15;2.85;;;;;;;8.73;100.00;100607.06;10372975;28;20108;-69
2023/11/11 18:47:36;;;;;;;6.30;3.60;;;;;;;8.84;100.00;100612.78;10371832;28;20469;-70
2023/11/11 18:52:37;;;;;;;2.22;2.10;;;;;;;8.85;100.00;100617.16;10372131;28;20073;-70
2023/11/11 18:57:38;;;;;;;5.25;3.33;;;;;;;8.89;100.00;100620.31;10373224;28;20399;-70
2023/11/11 19:02:38;;;;;;;9.30;3.15;;;;;;;8.93;100.00;100618.88;10372243;28;20125;-70
2023/11/11 19:07:39;;;;;;;3.70;2.60;;;;;;;9.00;100.00;100619.81;10353784;28;20084;-69
2023/11/11 19:12:39;;;;;;;7.55;3.63;;;;;;;9.06;100.00;100616.31;10371850;28;20048;-69
2023/11/11 19:17:41;;;;;;;6.93;4.43;;;;;;;9.08;100.00;100633.16;10370150;28;20030;-69
2023/11/11 19:22:41;;;;;;;10.57;4.03;;;;;;;9.11;100.00;100636.50;10371415;28;20057;-70
2023/11/11 19:27:43;;;;;;;6.97;2.72;;;;;;;9.12;100.00;100639.00;10371064;28;20034;-70
2023/11/11 19:32:44;;;;;;;14.73;4.22;;;;;;;9.00;100.00;100633.31;10371008;28;20048;-69
2023/11/11 19:37:44;;;;;;;4.65;3.05;;;;;;;8.95;100.00;100635.75;10370101;28;20120;-70
2023/11/11 19:42:44;;;;;;;2.45;2.25;;;;;;;8.92;100.00;100625.31;10369600;28;20381;-70
2023/11/11 19:47:45;;;;;;;5.32;3.38;;;;;;;8.93;100.00;100626.97;10369322;28;20081;-70
2023/11/11 19:52:46;;;;;;;19.08;3.28;;;;;;;8.91;100.00;100612.84;10370124;28;20115;-69
2023/11/11 19:57:46;;;;;;;2.90;2.67;;;;;;;8.91;100.00;100615.56;10370985;28;20157;-70
2023/11/11 20:02:46;;;;;;;6.15;3.53;;;;;;;8.83;100.00;100611.09;10373674;28;20038;-70
2023/11/11 20:07:48;;;;;;;10.77;4.18;;;;;;;8.78;100.00;100607.34;10354862;28;20026;-70
2023/11/11 20:12:48;;;;;;;10.80;5.28;;;;;;;8.77;100.00;100619.97;10353298;28;20030;-69
2023/11/11 20:17:48;;;;;;;12.27;4.13;;;;;;;8.76;100.00;100602.13;10371704;28;20045;-70
2023/11/11 20:22:49;;;;;;;7.72;3.20;;;;;;;8.72;100.00;100603.53;10368428;28;20120;-69
2023/11/11 20:27:49;;;;;;;6.30;4.85;;;;;;;8.60;100.00;100602.38;10370256;28;20526;-70
2023/11/11 20:32:50;;;;;;;10.38;5.03;;;;;;;8.41;100.00;100597.59;10368582;28;20029;-70
2023/11/11 20:37:51;;;;;;;11.90;4.15;;;;;;;8.09;100.00;100591.59;10369947;28;20034;-70
2023/11/11 20:42:54;;;;;;;8.45;4.53;;;;;;;7.90;100.00;100598.41;10369958;28;20061;-69
2023/11/11 20:47:57;;;;;;;9.38;4.18;;;;;;;7.80;100.00;100592.47;10370403;28;20152;-70
2023/11/11 20:52:58;;;;;;;12.80;5.47;;;;;;;7.82;100.00;100601.22;10372285;28;20074;-69
2023/11/11 20:57:58;;;;;;;12.48;5.38;;;;;;;7.97;100.00;100603.88;10375056;28;20436;-69
2023/11/11 21:02:59;;;;;;;10.52;6.45;;;;;;;8.08;100.00;100601.56;10375394;28;20065;-70
2023/11/11 21:07:59;;;;;;;9.57;5.00;;;;;;;8.18;100.00;100597.72;10376675;28;20042;-70
2023/11/11 21:13:00;;;;;;;16.90;6.60;;;;;;;8.21;100.00;100595.47;10376335;28;20041;-70
2023/11/11 21:18:01;;;;;;;13.02;6.47;;;;;;;8.23;100.00;100589.88;10376745;28;20038;-70
2023/11/11 21:23:01;;;;;;;6.78;4.22;;;;;;;8.17;100.00;100594.19;10376461;28;20124;-70
2023/11/11 21:28:02;;;;;;;15.55;5.63;;;;;;;8.05;100.00;100585.75;10374925;28;20038;-70
2023/11/11 21:33:02;;;;;;;21.00;6.57;;;;;;;8.02;100.00;100594.22;10375655;28;20141;-71
2023/11/11 21:38:02;;;;;;;12.00;5.60;;;;;;;7.98;100.00;100586.69;10374715;28;20060;-69
2023/11/11 21:43:03;;;;;;;8.38;5.53;;;;;;;7.95;100.00;100579.00;10373877;28;20041;-70
2023/11/11 21:48:03;;;;;;;8.80;4.57;;;;;;;7.94;100.00;100578.13;10373761;28;20099;-69
2023/11/11 21:53:04;;;;;;;10.68;5.55;;;;;;;7.89;100.00;100578.69;10374944;28;20482;-70
2023/11/11 21:58:05;;;;;;;8.93;4.90;;;;;;;7.95;100.00;100581.69;10374941;28;20096;-70
2023/11/11 22:03:05;;;;;;;7.95;4.80;;;;;;;8.01;100.00;100570.13;10372684;28;20034;-70
2023/11/11 22:08:08;;;;;;;6.80;5.90;;;;;;;8.04;100.00;100567.03;10374485;28;20049;-69
2023/11/11 22:13:08;;;;;;;13.32;7.03;;;;;;;8.05;100.00;100569.56;10374381;28;20426;-69
2023/11/11 22:18:09;;;;;;;10.65;5.32;;;;;;;7.99;100.00;100558.69;10373948;28;20115;-70
2023/11/11 22:23:09;;;;;;;8.30;5.03;;;;;;;7.94;100.00;100567.34;10372162;28;20061;-69
2023/11/11 22:28:09;;;;;;;4.47;4.18;;;;;;;7.88;100.00;100551.91;10373939;28;20472;-71
2023/11/11 22:33:11;;;;;;;10.75;4.38;;;;;;;7.86;100.00;100553.97;10371347;28;20033;-70
2023/11/11 22:38:12;;;;;;;15.63;6.93;;;;;;;7.85;100.00;100558.53;10371742;28;20030;-71
2023/11/11 22:43:12;;;;;;;8.55;5.18;;;;;;;7.95;100.00;100552.03;10355942;28;20152;-70
2023/11/11 22:48:12;;;;;;;8.55;3.95;;;;;;;7.97;100.00;100550.78;10372441;28;20457;-71
2023/11/11 22:53:13;;;;;;;9.70;4.60;;;;;;;7.96;100.00;100543.72;10388958;28;20189;-71
2023/11/11 22:58:13;;;;;;;8.60;5.30;;;;;;;7.91;100.00;100554.22;10371966;28;20205;-70